sensor_id;sensor_type;location;lat;lon;timestamp;P1;durP1;ratioP1;P2;durP2;ratioP2
22030;SDS011;11179;52.106;21.024;2023-04-15T00:01:45;12.73;;;6.83;;
22030;SDS011;11179;52.106;21.024;2023-04-15T00:04:11;18.20;;;7.80;;
22030;SDS011;11179;52.106;21.024;2023-04-15T00:06:36;15.00;;;8.80;;
22030;SDS011;11179;52.106;21.024;2023-04-15T00:09:03;13.77;;;6.90;;
22030;SDS011;11179;52.106;21.024;2023-04-15T00:11:29;21.60;;;9.20;;
22030;SDS011;11179;52.106;21.024;2023-04-15T00:13:54;16.00;;;8.50;;
22030;SDS011;11179;52.106;21.024;2023-04-15T00:16:19;15.27;;;7.97;;
22030;SDS011;11179;52.106;21.024;2023-04-15T00:18:45;18.60;;;9.00;;
22030;SDS011;11179;52.106;21.024;2023-04-15T00:21:10;16.73;;;8.60;;
22030;SDS011;11179;52.106;21.024;2023-04-15T00:23:36;16.60;;;9.57;;
22030;SDS011;11179;52.106;21.024;2023-04-15T00:26:01;14.90;;;8.87;;
22030;SDS011;11179;52.106;21.024;2023-04-15T00:28:27;17.73;;;9.80;;
22030;SDS011;11179;52.106;21.024;2023-04-15T00:30:52;15.40;;;8.60;;
22030;SDS011;11179;52.106;21.024;2023-04-15T00:33:17;16.83;;;8.67;;
22030;SDS011;11179;52.106;21.024;2023-04-15T00:35:43;20.20;;;9.50;;
22030;SDS011;11179;52.106;21.024;2023-04-15T00:38:08;17.40;;;8.93;;
22030;SDS011;11179;52.106;21.024;2023-04-15T00:40:33;14.80;;;8.73;;
22030;SDS011;11179;52.106;21.024;2023-04-15T00:42:59;17.40;;;9.00;;
22030;SDS011;11179;52.106;21.024;2023-04-15T00:45:25;18.13;;;8.83;;
22030;SDS011;11179;52.106;21.024;2023-04-15T00:47:52;15.97;;;9.13;;
22030;SDS011;11179;52.106;21.024;2023-04-15T00:50:17;20.00;;;9.03;;
22030;SDS011;11179;52.106;21.024;2023-04-15T00:52:43;14.83;;;8.60;;
22030;SDS011;11179;52.106;21.024;2023-04-15T00:55:08;18.20;;;10.20;;
22030;SDS011;11179;52.106;21.024;2023-04-15T00:57:35;16.33;;;9.23;;
22030;SDS011;11179;52.106;21.024;2023-04-15T01:00:00;18.03;;;8.80;;
22030;SDS011;11179;52.106;21.024;2023-04-15T01:02:26;14.47;;;9.30;;
22030;SDS011;11179;52.106;21.024;2023-04-15T01:04:51;17.70;;;8.80;;
22030;SDS011;11179;52.106;21.024;2023-04-15T01:07:17;19.70;;;10.40;;
22030;SDS011;11179;52.106;21.024;2023-04-15T01:09:42;14.97;;;8.50;;
22030;SDS011;11179;52.106;21.024;2023-04-15T01:12:10;18.00;;;9.83;;
22030;SDS011;11179;52.106;21.024;2023-04-15T01:14:38;18.20;;;10.83;;
22030;SDS011;11179;52.106;21.024;2023-04-15T01:17:03;22.33;;;9.60;;
22030;SDS011;11179;52.106;21.024;2023-04-15T01:19:29;19.00;;;10.30;;
22030;SDS011;11179;52.106;21.024;2023-04-15T01:21:55;20.50;;;10.60;;
22030;SDS011;11179;52.106;21.024;2023-04-15T01:24:21;18.77;;;11.10;;
22030;SDS011;11179;52.106;21.024;2023-04-15T01:26:47;16.30;;;9.60;;
22030;SDS011;11179;52.106;21.024;2023-04-15T01:29:14;19.63;;;10.83;;
22030;SDS011;11179;52.106;21.024;2023-04-15T01:31:39;18.80;;;9.90;;
22030;SDS011;11179;52.106;21.024;2023-04-15T01:34:05;20.30;;;10.10;;
22030;SDS011;11179;52.106;21.024;2023-04-15T01:36:30;19.60;;;11.00;;
22030;SDS011;11179;52.106;21.024;2023-04-15T01:38:56;20.80;;;11.23;;
22030;SDS011;11179;52.106;21.024;2023-04-15T01:41:25;20.40;;;11.27;;
22030;SDS011;11179;52.106;21.024;2023-04-15T01:43:52;24.03;;;10.97;;
22030;SDS011;11179;52.106;21.024;2023-04-15T01:46:17;22.57;;;11.10;;
22030;SDS011;11179;52.106;21.024;2023-04-15T01:48:43;21.83;;;11.63;;
22030;SDS011;11179;52.106;21.024;2023-04-15T01:51:08;18.87;;;10.17;;
22030;SDS011;11179;52.106;21.024;2023-04-15T01:53:34;17.93;;;10.30;;
22030;SDS011;11179;52.106;21.024;2023-04-15T01:55:59;22.13;;;12.00;;
22030;SDS011;11179;52.106;21.024;2023-04-15T01:58:25;20.00;;;11.10;;
22030;SDS011;11179;52.106;21.024;2023-04-15T02:00:51;24.43;;;13.33;;
22030;SDS011;11179;52.106;21.024;2023-04-15T02:03:17;24.90;;;10.77;;
22030;SDS011;11179;52.106;21.024;2023-04-15T02:05:43;20.20;;;11.00;;
22030;SDS011;11179;52.106;21.024;2023-04-15T02:08:09;19.67;;;11.60;;
22030;SDS011;11179;52.106;21.024;2023-04-15T02:10:36;23.93;;;10.90;;
22030;SDS011;11179;52.106;21.024;2023-04-15T02:13:01;19.33;;;10.27;;
22030;SDS011;11179;52.106;21.024;2023-04-15T02:15:26;21.43;;;12.40;;
22030;SDS011;11179;52.106;21.024;2023-04-15T02:17:51;20.83;;;10.83;;
22030;SDS011;11179;52.106;21.024;2023-04-15T02:20:19;23.60;;;13.03;;
22030;SDS011;11179;52.106;21.024;2023-04-15T02:22:45;20.73;;;12.77;;
22030;SDS011;11179;52.106;21.024;2023-04-15T02:25:11;20.80;;;11.67;;
22030;SDS011;11179;52.106;21.024;2023-04-15T02:27:36;21.80;;;11.23;;
22030;SDS011;11179;52.106;21.024;2023-04-15T02:30:02;21.20;;;12.07;;
22030;SDS011;11179;52.106;21.024;2023-04-15T02:32:27;18.13;;;9.53;;
22030;SDS011;11179;52.106;21.024;2023-04-15T02:34:53;21.43;;;12.53;;
22030;SDS011;11179;52.106;21.024;2023-04-15T02:37:18;22.20;;;12.33;;
22030;SDS011;11179;52.106;21.024;2023-04-15T02:39:44;24.77;;;12.37;;
22030;SDS011;11179;52.106;21.024;2023-04-15T02:42:10;23.07;;;13.13;;
22030;SDS011;11179;52.106;21.024;2023-04-15T02:44:35;21.60;;;12.07;;
22030;SDS011;11179;52.106;21.024;2023-04-15T02:47:01;23.77;;;13.40;;
22030;SDS011;11179;52.106;21.024;2023-04-15T02:49:27;23.73;;;12.40;;
22030;SDS011;11179;52.106;21.024;2023-04-15T02:51:54;25.70;;;12.90;;
22030;SDS011;11179;52.106;21.024;2023-04-15T02:54:22;21.80;;;12.63;;
22030;SDS011;11179;52.106;21.024;2023-04-15T02:56:48;22.60;;;12.00;;
22030;SDS011;11179;52.106;21.024;2023-04-15T02:59:14;25.60;;;13.70;;
22030;SDS011;11179;52.106;21.024;2023-04-15T03:01:39;23.10;;;11.63;;
22030;SDS011;11179;52.106;21.024;2023-04-15T03:04:05;21.90;;;11.83;;
22030;SDS011;11179;52.106;21.024;2023-04-15T03:06:32;23.47;;;12.73;;
22030;SDS011;11179;52.106;21.024;2023-04-15T03:08:58;26.47;;;14.83;;
22030;SDS011;11179;52.106;21.024;2023-04-15T03:11:24;20.83;;;11.73;;
22030;SDS011;11179;52.106;21.024;2023-04-15T03:13:51;25.13;;;12.67;;
22030;SDS011;11179;52.106;21.024;2023-04-15T03:16:16;21.20;;;11.93;;
22030;SDS011;11179;52.106;21.024;2023-04-15T03:18:42;21.10;;;12.27;;
22030;SDS011;11179;52.106;21.024;2023-04-15T03:21:07;23.23;;;11.60;;
22030;SDS011;11179;52.106;21.024;2023-04-15T03:23:32;21.33;;;12.43;;
22030;SDS011;11179;52.106;21.024;2023-04-15T03:26:00;21.87;;;10.60;;
22030;SDS011;11179;52.106;21.024;2023-04-15T03:28:26;19.50;;;10.80;;
22030;SDS011;11179;52.106;21.024;2023-04-15T03:30:51;22.33;;;11.87;;
22030;SDS011;11179;52.106;21.024;2023-04-15T03:33:16;20.13;;;11.33;;
22030;SDS011;11179;52.106;21.024;2023-04-15T03:35:42;20.33;;;11.83;;
22030;SDS011;11179;52.106;21.024;2023-04-15T03:38:07;19.70;;;10.87;;
22030;SDS011;11179;52.106;21.024;2023-04-15T03:40:33;18.17;;;11.57;;
22030;SDS011;11179;52.106;21.024;2023-04-15T03:42:58;24.40;;;12.90;;
22030;SDS011;11179;52.106;21.024;2023-04-15T03:45:23;19.67;;;11.83;;
22030;SDS011;11179;52.106;21.024;2023-04-15T03:47:49;18.93;;;11.13;;
22030;SDS011;11179;52.106;21.024;2023-04-15T03:50:15;21.10;;;12.07;;
22030;SDS011;11179;52.106;21.024;2023-04-15T03:52:40;18.63;;;10.40;;
22030;SDS011;11179;52.106;21.024;2023-04-15T03:55:05;20.50;;;10.90;;
22030;SDS011;11179;52.106;21.024;2023-04-15T03:57:32;21.10;;;11.73;;
22030;SDS011;11179;52.106;21.024;2023-04-15T04:00:02;23.80;;;11.03;;
22030;SDS011;11179;52.106;21.024;2023-04-15T04:02:28;17.93;;;10.83;;
22030;SDS011;11179;52.106;21.024;2023-04-15T04:04:53;19.57;;;11.33;;
22030;SDS011;11179;52.106;21.024;2023-04-15T04:07:19;17.40;;;7.93;;
22030;SDS011;11179;52.106;21.024;2023-04-15T04:09:44;20.90;;;11.30;;
22030;SDS011;11179;52.106;21.024;2023-04-15T04:12:09;18.67;;;10.83;;
22030;SDS011;11179;52.106;21.024;2023-04-15T04:14:35;20.10;;;11.40;;
22030;SDS011;11179;52.106;21.024;2023-04-15T04:17:00;21.80;;;11.67;;
22030;SDS011;11179;52.106;21.024;2023-04-15T04:19:26;18.17;;;10.70;;
22030;SDS011;11179;52.106;21.024;2023-04-15T04:21:51;18.23;;;9.30;;
22030;SDS011;11179;52.106;21.024;2023-04-15T04:24:17;19.20;;;10.63;;
22030;SDS011;11179;52.106;21.024;2023-04-15T04:26:42;20.57;;;11.07;;
22030;SDS011;11179;52.106;21.024;2023-04-15T04:29:07;20.23;;;10.20;;
22030;SDS011;11179;52.106;21.024;2023-04-15T04:31:33;19.10;;;11.40;;
22030;SDS011;11179;52.106;21.024;2023-04-15T04:33:58;18.33;;;10.57;;
22030;SDS011;11179;52.106;21.024;2023-04-15T04:36:23;20.40;;;11.23;;
22030;SDS011;11179;52.106;21.024;2023-04-15T04:38:49;17.87;;;11.80;;
22030;SDS011;11179;52.106;21.024;2023-04-15T04:41:14;20.67;;;10.37;;
22030;SDS011;11179;52.106;21.024;2023-04-15T04:43:40;17.27;;;8.47;;
22030;SDS011;11179;52.106;21.024;2023-04-15T04:46:05;14.70;;;7.73;;
22030;SDS011;11179;52.106;21.024;2023-04-15T04:48:30;18.87;;;10.57;;
22030;SDS011;11179;52.106;21.024;2023-04-15T04:50:55;15.83;;;10.23;;
22030;SDS011;11179;52.106;21.024;2023-04-15T04:53:21;24.20;;;11.03;;
22030;SDS011;11179;52.106;21.024;2023-04-15T04:55:46;23.87;;;10.17;;
22030;SDS011;11179;52.106;21.024;2023-04-15T04:58:11;18.87;;;10.60;;
22030;SDS011;11179;52.106;21.024;2023-04-15T05:00:37;17.50;;;10.47;;
22030;SDS011;11179;52.106;21.024;2023-04-15T05:03:03;20.80;;;11.40;;
22030;SDS011;11179;52.106;21.024;2023-04-15T05:05:28;20.00;;;9.80;;
22030;SDS011;11179;52.106;21.024;2023-04-15T05:07:53;20.70;;;11.20;;
22030;SDS011;11179;52.106;21.024;2023-04-15T05:10:19;20.50;;;10.80;;
22030;SDS011;11179;52.106;21.024;2023-04-15T05:12:44;19.27;;;9.70;;
22030;SDS011;11179;52.106;21.024;2023-04-15T05:15:09;19.10;;;10.30;;
22030;SDS011;11179;52.106;21.024;2023-04-15T05:17:35;20.90;;;11.20;;
22030;SDS011;11179;52.106;21.024;2023-04-15T05:20:01;21.90;;;11.90;;
22030;SDS011;11179;52.106;21.024;2023-04-15T05:22:27;16.97;;;8.43;;
22030;SDS011;11179;52.106;21.024;2023-04-15T05:24:52;20.03;;;11.13;;
22030;SDS011;11179;52.106;21.024;2023-04-15T05:27:17;20.53;;;11.50;;
22030;SDS011;11179;52.106;21.024;2023-04-15T05:29:43;20.17;;;10.50;;
22030;SDS011;11179;52.106;21.024;2023-04-15T05:32:09;19.17;;;10.40;;
22030;SDS011;11179;52.106;21.024;2023-04-15T05:34:34;19.20;;;10.10;;
22030;SDS011;11179;52.106;21.024;2023-04-15T05:37:00;17.77;;;10.70;;
22030;SDS011;11179;52.106;21.024;2023-04-15T05:39:25;17.40;;;10.60;;
22030;SDS011;11179;52.106;21.024;2023-04-15T05:41:50;18.10;;;8.77;;
22030;SDS011;11179;52.106;21.024;2023-04-15T05:44:16;20.23;;;10.67;;
22030;SDS011;11179;52.106;21.024;2023-04-15T05:46:41;19.90;;;11.10;;
22030;SDS011;11179;52.106;21.024;2023-04-15T05:49:07;18.90;;;11.07;;
22030;SDS011;11179;52.106;21.024;2023-04-15T05:51:32;18.57;;;10.57;;
22030;SDS011;11179;52.106;21.024;2023-04-15T05:53:57;15.70;;;7.47;;
22030;SDS011;11179;52.106;21.024;2023-04-15T05:56:23;19.07;;;10.50;;
22030;SDS011;11179;52.106;21.024;2023-04-15T05:58:50;18.43;;;10.17;;
22030;SDS011;11179;52.106;21.024;2023-04-15T06:01:16;22.13;;;10.80;;
22030;SDS011;11179;52.106;21.024;2023-04-15T06:03:41;16.40;;;10.07;;
22030;SDS011;11179;52.106;21.024;2023-04-15T06:06:07;23.73;;;9.63;;
22030;SDS011;11179;52.106;21.024;2023-04-15T06:08:32;18.53;;;10.50;;
22030;SDS011;11179;52.106;21.024;2023-04-15T06:10:58;17.80;;;10.17;;
22030;SDS011;11179;52.106;21.024;2023-04-15T06:13:23;19.90;;;9.90;;
22030;SDS011;11179;52.106;21.024;2023-04-15T06:15:48;16.20;;;9.10;;
22030;SDS011;11179;52.106;21.024;2023-04-15T06:18:14;17.33;;;9.87;;
22030;SDS011;11179;52.106;21.024;2023-04-15T06:20:39;17.03;;;9.93;;
22030;SDS011;11179;52.106;21.024;2023-04-15T06:23:05;14.93;;;9.03;;
22030;SDS011;11179;52.106;21.024;2023-04-15T06:25:31;17.47;;;9.40;;
22030;SDS011;11179;52.106;21.024;2023-04-15T06:27:56;17.70;;;10.00;;
22030;SDS011;11179;52.106;21.024;2023-04-15T06:30:21;15.63;;;6.83;;
22030;SDS011;11179;52.106;21.024;2023-04-15T06:32:47;18.40;;;9.27;;
22030;SDS011;11179;52.106;21.024;2023-04-15T06:35:12;20.87;;;8.53;;
22030;SDS011;11179;52.106;21.024;2023-04-15T06:37:38;18.60;;;8.93;;
22030;SDS011;11179;52.106;21.024;2023-04-15T06:40:03;14.03;;;9.10;;
22030;SDS011;11179;52.106;21.024;2023-04-15T06:42:29;16.87;;;8.70;;
22030;SDS011;11179;52.106;21.024;2023-04-15T06:44:55;16.10;;;8.60;;
22030;SDS011;11179;52.106;21.024;2023-04-15T06:47:20;14.43;;;8.30;;
22030;SDS011;11179;52.106;21.024;2023-04-15T06:49:46;13.67;;;8.23;;
22030;SDS011;11179;52.106;21.024;2023-04-15T06:52:11;16.80;;;8.40;;
22030;SDS011;11179;52.106;21.024;2023-04-15T06:54:37;15.97;;;9.40;;
22030;SDS011;11179;52.106;21.024;2023-04-15T06:57:02;12.53;;;7.27;;
22030;SDS011;11179;52.106;21.024;2023-04-15T06:59:27;10.63;;;6.17;;
22030;SDS011;11179;52.106;21.024;2023-04-15T07:01:53;13.17;;;7.90;;
22030;SDS011;11179;52.106;21.024;2023-04-15T07:04:18;12.07;;;7.10;;
22030;SDS011;11179;52.106;21.024;2023-04-15T07:06:44;11.13;;;7.17;;
22030;SDS011;11179;52.106;21.024;2023-04-15T07:09:10;17.57;;;6.73;;
22030;SDS011;11179;52.106;21.024;2023-04-15T07:11:35;11.53;;;6.50;;
22030;SDS011;11179;52.106;21.024;2023-04-15T07:14:01;13.17;;;7.13;;
22030;SDS011;11179;52.106;21.024;2023-04-15T07:16:26;13.90;;;7.47;;
22030;SDS011;11179;52.106;21.024;2023-04-15T07:18:52;14.30;;;7.70;;
22030;SDS011;11179;52.106;21.024;2023-04-15T07:21:17;12.30;;;6.93;;
22030;SDS011;11179;52.106;21.024;2023-04-15T07:23:43;12.20;;;6.87;;
22030;SDS011;11179;52.106;21.024;2023-04-15T07:26:08;11.27;;;6.60;;
22030;SDS011;11179;52.106;21.024;2023-04-15T07:28:33;13.00;;;6.70;;
22030;SDS011;11179;52.106;21.024;2023-04-15T07:30:59;10.40;;;6.00;;
22030;SDS011;11179;52.106;21.024;2023-04-15T07:33:25;13.43;;;6.43;;
22030;SDS011;11179;52.106;21.024;2023-04-15T07:35:50;9.90;;;5.10;;
22030;SDS011;11179;52.106;21.024;2023-04-15T07:38:15;9.87;;;5.70;;
22030;SDS011;11179;52.106;21.024;2023-04-15T07:40:41;12.83;;;6.03;;
22030;SDS011;11179;52.106;21.024;2023-04-15T07:43:06;11.53;;;5.80;;
22030;SDS011;11179;52.106;21.024;2023-04-15T07:45:32;14.20;;;6.40;;
22030;SDS011;11179;52.106;21.024;2023-04-15T07:47:58;9.53;;;5.20;;
22030;SDS011;11179;52.106;21.024;2023-04-15T07:50:23;10.67;;;6.30;;
22030;SDS011;11179;52.106;21.024;2023-04-15T07:52:49;10.13;;;5.73;;
22030;SDS011;11179;52.106;21.024;2023-04-15T07:55:15;9.93;;;6.20;;
22030;SDS011;11179;52.106;21.024;2023-04-15T07:57:43;10.83;;;6.30;;
22030;SDS011;11179;52.106;21.024;2023-04-15T08:00:08;9.70;;;5.70;;
22030;SDS011;11179;52.106;21.024;2023-04-15T08:02:35;10.33;;;5.57;;
22030;SDS011;11179;52.106;21.024;2023-04-15T08:05:00;10.13;;;5.70;;
22030;SDS011;11179;52.106;21.024;2023-04-15T08:07:28;10.80;;;5.83;;
22030;SDS011;11179;52.106;21.024;2023-04-15T08:09:54;11.30;;;5.80;;
22030;SDS011;11179;52.106;21.024;2023-04-15T08:12:19;9.47;;;5.40;;
22030;SDS011;11179;52.106;21.024;2023-04-15T08:14:44;12.47;;;6.43;;
22030;SDS011;11179;52.106;21.024;2023-04-15T08:17:10;11.47;;;6.40;;
22030;SDS011;11179;52.106;21.024;2023-04-15T08:19:36;10.80;;;6.20;;
22030;SDS011;11179;52.106;21.024;2023-04-15T08:22:01;10.23;;;5.70;;
22030;SDS011;11179;52.106;21.024;2023-04-15T08:24:26;12.20;;;6.90;;
22030;SDS011;11179;52.106;21.024;2023-04-15T08:26:52;9.50;;;5.17;;
22030;SDS011;11179;52.106;21.024;2023-04-15T08:29:17;10.23;;;5.93;;
22030;SDS011;11179;52.106;21.024;2023-04-15T08:31:43;10.03;;;5.50;;
22030;SDS011;11179;52.106;21.024;2023-04-15T08:34:10;8.97;;;5.43;;
22030;SDS011;11179;52.106;21.024;2023-04-15T08:36:35;11.63;;;6.00;;
22030;SDS011;11179;52.106;21.024;2023-04-15T08:39:01;13.00;;;6.73;;
22030;SDS011;11179;52.106;21.024;2023-04-15T08:41:28;10.90;;;6.50;;
22030;SDS011;11179;52.106;21.024;2023-04-15T08:44:00;14.00;;;7.40;;
22030;SDS011;11179;52.106;21.024;2023-04-15T08:46:27;16.50;;;8.40;;
22030;SDS011;11179;52.106;21.024;2023-04-15T08:48:55;11.60;;;6.90;;
22030;SDS011;11179;52.106;21.024;2023-04-15T08:51:21;11.13;;;5.40;;
22030;SDS011;11179;52.106;21.024;2023-04-15T08:53:47;8.90;;;5.27;;
22030;SDS011;11179;52.106;21.024;2023-04-15T08:56:14;8.30;;;4.80;;
22030;SDS011;11179;52.106;21.024;2023-04-15T08:58:43;8.53;;;5.03;;
22030;SDS011;11179;52.106;21.024;2023-04-15T09:01:09;8.07;;;3.97;;
22030;SDS011;11179;52.106;21.024;2023-04-15T09:03:36;8.40;;;4.80;;
22030;SDS011;11179;52.106;21.024;2023-04-15T09:06:03;8.93;;;5.27;;
22030;SDS011;11179;52.106;21.024;2023-04-15T09:08:29;8.00;;;4.77;;
22030;SDS011;11179;52.106;21.024;2023-04-15T09:10:55;9.57;;;5.27;;
22030;SDS011;11179;52.106;21.024;2023-04-15T09:13:21;8.63;;;5.00;;
22030;SDS011;11179;52.106;21.024;2023-04-15T09:15:46;7.10;;;3.43;;
22030;SDS011;11179;52.106;21.024;2023-04-15T09:18:13;9.33;;;4.60;;
22030;SDS011;11179;52.106;21.024;2023-04-15T09:20:50;8.87;;;4.00;;
22030;SDS011;11179;52.106;21.024;2023-04-15T09:23:17;6.40;;;3.43;;
22030;SDS011;11179;52.106;21.024;2023-04-15T09:25:42;7.20;;;3.90;;
22030;SDS011;11179;52.106;21.024;2023-04-15T09:28:08;7.30;;;4.27;;
22030;SDS011;11179;52.106;21.024;2023-04-15T09:30:34;7.50;;;4.37;;
22030;SDS011;11179;52.106;21.024;2023-04-15T09:33:01;9.23;;;4.10;;
22030;SDS011;11179;52.106;21.024;2023-04-15T09:35:26;7.90;;;4.20;;
22030;SDS011;11179;52.106;21.024;2023-04-15T09:37:53;6.50;;;3.80;;
22030;SDS011;11179;52.106;21.024;2023-04-15T09:40:30;8.67;;;3.80;;
22030;SDS011;11179;52.106;21.024;2023-04-15T09:42:58;7.33;;;3.13;;
22030;SDS011;11179;52.106;21.024;2023-04-15T09:45:23;5.60;;;2.90;;
22030;SDS011;11179;52.106;21.024;2023-04-15T09:47:49;7.30;;;4.20;;
22030;SDS011;11179;52.106;21.024;2023-04-15T09:50:18;7.20;;;4.00;;
22030;SDS011;11179;52.106;21.024;2023-04-15T09:52:44;6.73;;;3.90;;
22030;SDS011;11179;52.106;21.024;2023-04-15T09:55:11;8.57;;;4.07;;
22030;SDS011;11179;52.106;21.024;2023-04-15T09:57:38;6.90;;;3.33;;
22030;SDS011;11179;52.106;21.024;2023-04-15T10:00:06;5.93;;;3.43;;
22030;SDS011;11179;52.106;21.024;2023-04-15T10:02:33;6.30;;;3.17;;
22030;SDS011;11179;52.106;21.024;2023-04-15T10:05:00;7.80;;;3.20;;
22030;SDS011;11179;52.106;21.024;2023-04-15T10:07:26;6.43;;;3.50;;
22030;SDS011;11179;52.106;21.024;2023-04-15T10:09:51;6.20;;;3.60;;
22030;SDS011;11179;52.106;21.024;2023-04-15T10:12:17;5.83;;;3.40;;
22030;SDS011;11179;52.106;21.024;2023-04-15T10:14:44;6.13;;;3.70;;
22030;SDS011;11179;52.106;21.024;2023-04-15T10:17:16;7.50;;;3.47;;
22030;SDS011;11179;52.106;21.024;2023-04-15T10:19:46;10.43;;;4.47;;
22030;SDS011;11179;52.106;21.024;2023-04-15T10:22:13;6.00;;;3.50;;
22030;SDS011;11179;52.106;21.024;2023-04-15T10:24:39;8.10;;;3.80;;
22030;SDS011;11179;52.106;21.024;2023-04-15T10:27:04;8.00;;;4.23;;
22030;SDS011;11179;52.106;21.024;2023-04-15T10:29:31;9.17;;;3.70;;
22030;SDS011;11179;52.106;21.024;2023-04-15T10:31:57;10.67;;;4.30;;
22030;SDS011;11179;52.106;21.024;2023-04-15T10:34:24;7.43;;;4.13;;
22030;SDS011;11179;52.106;21.024;2023-04-15T10:36:50;8.53;;;4.50;;
22030;SDS011;11179;52.106;21.024;2023-04-15T10:44:31;7.57;;;4.23;;
22030;SDS011;11179;52.106;21.024;2023-04-15T10:46:56;7.40;;;4.30;;
22030;SDS011;11179;52.106;21.024;2023-04-15T10:49:25;8.73;;;4.90;;
22030;SDS011;11179;52.106;21.024;2023-04-15T10:51:51;8.30;;;5.00;;
22030;SDS011;11179;52.106;21.024;2023-04-15T10:54:31;11.50;;;5.63;;
22030;SDS011;11179;52.106;21.024;2023-04-15T10:59:31;10.83;;;6.80;;
22030;SDS011;11179;52.106;21.024;2023-04-15T11:02:02;10.40;;;6.10;;
22030;SDS011;11179;52.106;21.024;2023-04-15T11:12:50;11.30;;;6.00;;
22030;SDS011;11179;52.106;21.024;2023-04-15T11:17:58;12.50;;;5.60;;
22030;SDS011;11179;52.106;21.024;2023-04-15T11:20:32;9.87;;;5.47;;
22030;SDS011;11179;52.106;21.024;2023-04-15T11:22:58;8.50;;;3.60;;
22030;SDS011;11179;52.106;21.024;2023-04-15T11:27:49;6.17;;;3.73;;
22030;SDS011;11179;52.106;21.024;2023-04-15T11:30:19;6.63;;;3.50;;
22030;SDS011;11179;52.106;21.024;2023-04-15T11:32:46;9.43;;;3.60;;
22030;SDS011;11179;52.106;21.024;2023-04-15T11:35:13;8.80;;;4.50;;
22030;SDS011;11179;52.106;21.024;2023-04-15T11:37:38;7.60;;;4.27;;
22030;SDS011;11179;52.106;21.024;2023-04-15T11:40:04;10.20;;;4.70;;
22030;SDS011;11179;52.106;21.024;2023-04-15T11:42:30;7.77;;;4.37;;
22030;SDS011;11179;52.106;21.024;2023-04-15T11:45:08;7.83;;;3.93;;
22030;SDS011;11179;52.106;21.024;2023-04-15T11:47:35;11.03;;;5.30;;
22030;SDS011;11179;52.106;21.024;2023-04-15T11:52:55;10.87;;;5.07;;
22030;SDS011;11179;52.106;21.024;2023-04-15T11:55:22;8.53;;;4.70;;
22030;SDS011;11179;52.106;21.024;2023-04-15T11:58:10;7.77;;;4.23;;
22030;SDS011;11179;52.106;21.024;2023-04-15T12:00:55;6.40;;;3.80;;
22030;SDS011;11179;52.106;21.024;2023-04-15T12:03:22;6.53;;;4.23;;
22030;SDS011;11179;52.106;21.024;2023-04-15T12:11:27;8.33;;;3.47;;
22030;SDS011;11179;52.106;21.024;2023-04-15T12:14:01;7.60;;;2.83;;
22030;SDS011;11179;52.106;21.024;2023-04-15T12:16:26;6.17;;;3.30;;
22030;SDS011;11179;52.106;21.024;2023-04-15T12:18:53;7.20;;;3.57;;
22030;SDS011;11179;52.106;21.024;2023-04-15T12:21:21;8.40;;;4.00;;
22030;SDS011;11179;52.106;21.024;2023-04-15T12:23:51;6.87;;;3.60;;
22030;SDS011;11179;52.106;21.024;2023-04-15T12:26:18;6.43;;;3.47;;
22030;SDS011;11179;52.106;21.024;2023-04-15T12:28:52;5.10;;;2.47;;
22030;SDS011;11179;52.106;21.024;2023-04-15T12:31:19;4.73;;;2.33;;
22030;SDS011;11179;52.106;21.024;2023-04-15T12:33:47;5.00;;;2.40;;
22030;SDS011;11179;52.106;21.024;2023-04-15T12:36:13;7.77;;;2.93;;
22030;SDS011;11179;52.106;21.024;2023-04-15T12:38:38;7.00;;;3.20;;
22030;SDS011;11179;52.106;21.024;2023-04-15T12:41:03;6.33;;;3.13;;
22030;SDS011;11179;52.106;21.024;2023-04-15T12:43:29;5.33;;;2.50;;
22030;SDS011;11179;52.106;21.024;2023-04-15T12:45:54;7.20;;;2.53;;
22030;SDS011;11179;52.106;21.024;2023-04-15T12:48:20;5.57;;;2.67;;
22030;SDS011;11179;52.106;21.024;2023-04-15T12:50:45;5.63;;;2.30;;
22030;SDS011;11179;52.106;21.024;2023-04-15T12:53:10;6.60;;;2.93;;
22030;SDS011;11179;52.106;21.024;2023-04-15T12:55:36;5.00;;;2.37;;
22030;SDS011;11179;52.106;21.024;2023-04-15T12:58:02;6.10;;;2.90;;
22030;SDS011;11179;52.106;21.024;2023-04-15T13:00:27;7.60;;;3.20;;
22030;SDS011;11179;52.106;21.024;2023-04-15T13:02:53;8.33;;;3.50;;
22030;SDS011;11179;52.106;21.024;2023-04-15T13:05:18;8.40;;;4.20;;
22030;SDS011;11179;52.106;21.024;2023-04-15T13:07:44;7.47;;;2.60;;
22030;SDS011;11179;52.106;21.024;2023-04-15T13:10:09;6.30;;;3.13;;
22030;SDS011;11179;52.106;21.024;2023-04-15T13:12:35;5.43;;;2.83;;
22030;SDS011;11179;52.106;21.024;2023-04-15T13:15:01;4.97;;;2.37;;
22030;SDS011;11179;52.106;21.024;2023-04-15T13:17:29;9.23;;;3.50;;
22030;SDS011;11179;52.106;21.024;2023-04-15T13:19:55;7.33;;;2.93;;
22030;SDS011;11179;52.106;21.024;2023-04-15T13:22:21;5.63;;;1.73;;
22030;SDS011;11179;52.106;21.024;2023-04-15T13:24:46;6.07;;;2.40;;
22030;SDS011;11179;52.106;21.024;2023-04-15T13:27:11;10.80;;;2.90;;
22030;SDS011;11179;52.106;21.024;2023-04-15T13:29:37;4.20;;;1.87;;
22030;SDS011;11179;52.106;21.024;2023-04-15T13:32:04;6.60;;;2.40;;
22030;SDS011;11179;52.106;21.024;2023-04-15T13:34:30;5.73;;;1.90;;
22030;SDS011;11179;52.106;21.024;2023-04-15T13:36:55;6.17;;;2.33;;
22030;SDS011;11179;52.106;21.024;2023-04-15T13:39:21;6.70;;;2.33;;
22030;SDS011;11179;52.106;21.024;2023-04-15T13:41:46;5.97;;;2.30;;
22030;SDS011;11179;52.106;21.024;2023-04-15T13:44:12;6.87;;;2.47;;
22030;SDS011;11179;52.106;21.024;2023-04-15T13:46:38;4.80;;;2.23;;
22030;SDS011;11179;52.106;21.024;2023-04-15T13:49:05;5.00;;;2.37;;
22030;SDS011;11179;52.106;21.024;2023-04-15T13:51:31;7.50;;;2.97;;
22030;SDS011;11179;52.106;21.024;2023-04-15T13:53:56;7.37;;;2.67;;
22030;SDS011;11179;52.106;21.024;2023-04-15T13:56:22;4.90;;;2.20;;
22030;SDS011;11179;52.106;21.024;2023-04-15T13:58:47;4.50;;;2.13;;
22030;SDS011;11179;52.106;21.024;2023-04-15T14:01:13;5.60;;;2.40;;
22030;SDS011;11179;52.106;21.024;2023-04-15T14:03:38;7.83;;;3.10;;
22030;SDS011;11179;52.106;21.024;2023-04-15T14:06:04;9.70;;;2.63;;
22030;SDS011;11179;52.106;21.024;2023-04-15T14:08:30;6.87;;;2.73;;
22030;SDS011;11179;52.106;21.024;2023-04-15T14:10:55;4.50;;;2.30;;
22030;SDS011;11179;52.106;21.024;2023-04-15T14:13:21;5.50;;;2.80;;
22030;SDS011;11179;52.106;21.024;2023-04-15T14:15:46;5.17;;;2.13;;
22030;SDS011;11179;52.106;21.024;2023-04-15T14:18:12;5.63;;;2.50;;
22030;SDS011;11179;52.106;21.024;2023-04-15T14:20:37;5.67;;;2.73;;
22030;SDS011;11179;52.106;21.024;2023-04-15T14:23:02;7.60;;;2.60;;
22030;SDS011;11179;52.106;21.024;2023-04-15T14:25:28;5.17;;;2.70;;
22030;SDS011;11179;52.106;21.024;2023-04-15T14:27:53;5.70;;;2.77;;
22030;SDS011;11179;52.106;21.024;2023-04-15T14:30:18;5.37;;;2.30;;
22030;SDS011;11179;52.106;21.024;2023-04-15T14:32:44;6.03;;;2.70;;
22030;SDS011;11179;52.106;21.024;2023-04-15T14:35:10;4.37;;;2.03;;
22030;SDS011;11179;52.106;21.024;2023-04-15T14:37:35;6.30;;;2.30;;
22030;SDS011;11179;52.106;21.024;2023-04-15T14:40:00;5.90;;;2.60;;
22030;SDS011;11179;52.106;21.024;2023-04-15T14:42:26;4.97;;;2.13;;
22030;SDS011;11179;52.106;21.024;2023-04-15T14:44:51;5.47;;;1.87;;